Time;durP1;ratioP1;P1;durP2;ratioP2;P2;SDS_P1;SDS_P2;PMS_P1;PMS_P2;Temp;Humidity;BMP_temperature;BMP_pressure;BME280_temperature;BME280_humidity;BME280_pressure;Samples;Min_cycle;Max_cycle;Signal;HPM_P1;HPM_P2
2021/05/15 00:00:34;;;;;;;0.90;0.90;;;15.80;55.70;;;;;;1487286;40;20036;-60
2021/05/15 00:01:55;;;;;;;0.70;0.70;;;15.80;55.80;;;;;;1488033;40;20394;-60
2021/05/15 00:03:16;;;;;;;1.13;0.90;;;15.80;55.70;;;;;;1487316;40;20044;-60
2021/05/15 00:04:37;;;;;;;0.80;0.80;;;15.80;55.70;;;;;;1485137;40;20385;-59
2021/05/15 00:05:58;;;;;;;0.75;0.73;;;15.80;55.80;;;;;;1487695;40;20036;-60
2021/05/15 00:07:18;;;;;;;0.80;0.80;;;15.80;55.70;;;;;;1487197;39;20039;-60
2021/05/15 00:08:39;;;;;;;0.70;0.70;;;15.80;55.60;;;;;;1482433;40;20083;-60
2021/05/15 00:10:00;;;;;;;2.03;0.90;;;15.70;55.60;;;;;;1488903;39;20087;-60
2021/05/15 00:11:21;;;;;;;0.93;0.93;;;15.70;55.60;;;;;;1487606;40;20357;-60
2021/05/15 00:12:43;;;;;;;1.00;1.00;;;15.70;55.60;;;;;;1485408;40;20122;-60
2021/05/15 00:14:04;;;;;;;0.80;0.80;;;15.70;55.60;;;;;;1487643;40;20262;-60
2021/05/15 00:15:29;;;;;;;1.00;1.00;;;15.70;55.60;;;;;;1486022;40;20505;-60
2021/05/15 00:16:49;;;;;;;0.90;0.90;;;15.60;55.70;;;;;;1486808;40;20063;-60
2021/05/15 00:18:10;;;;;;;1.80;0.90;;;15.60;55.70;;;;;;1486044;40;20041;-59
2021/05/15 00:19:31;;;;;;;1.00;1.00;;;15.60;55.60;;;;;;1487360;40;20067;-60
2021/05/15 00:20:53;;;;;;;1.00;1.00;;;15.60;55.50;;;;;;1486457;40;20308;-60
2021/05/15 00:22:14;;;;;;;0.95;0.95;;;15.50;55.50;;;;;;1487617;40;20047;-60
2021/05/15 00:23:35;;;;;;;1.27;1.15;;;15.50;55.50;;;;;;1485068;40;20036;-60
2021/05/15 00:24:56;;;;;;;1.10;1.10;;;15.50;55.50;;;;;;1487451;40;20278;-59
2021/05/15 00:26:18;;;;;;;1.20;1.10;;;15.40;56.00;;;;;;1487554;40;20081;-60
2021/05/15 00:27:39;;;;;;;1.35;1.10;;;15.40;55.60;;;;;;1485510;40;20392;-60
2021/05/15 00:29:00;;;;;;;1.55;1.08;;;15.40;55.60;;;;;;1487229;39;20028;-60
2021/05/15 00:30:21;;;;;;;1.00;1.00;;;15.40;55.60;;;;;;1488603;39;20048;-60
2021/05/15 00:31:42;;;;;;;1.00;1.00;;;15.40;55.70;;;;;;1487320;39;20120;-60
2021/05/15 00:33:03;;;;;;;1.33;1.23;;;15.30;55.70;;;;;;1485206;40;20036;-60
2021/05/15 00:34:24;;;;;;;1.42;1.33;;;15.30;55.80;;;;;;1482316;40;20028;-60
2021/05/15 00:35:45;;;;;;;1.10;1.00;;;15.30;55.90;;;;;;1482286;40;20029;-61
2021/05/15 00:37:07;;;;;;;1.25;1.15;;;15.30;56.00;;;;;;1482884;40;20037;-60
2021/05/15 00:38:28;;;;;;;2.33;1.35;;;15.20;55.90;;;;;;1482705;40;20037;-60
2021/05/15 00:39:48;;;;;;;1.17;1.17;;;15.20;56.00;;;;;;1483706;40;20044;-60
2021/05/15 00:41:10;;;;;;;1.30;1.20;;;15.20;56.00;;;;;;1483202;40;20021;-60
2021/05/15 00:42:32;;;;;;;1.10;1.10;;;15.20;56.10;;;;;;1482690;40;20041;-60
2021/05/15 00:45:41;;;;;;;1.00;1.00;;;15.10;56.30;;;;;;1479774;40;20362;-60
2021/05/15 00:47:02;;;;;;;1.33;1.23;;;15.10;56.30;;;;;;1483659;40;20029;-60
2021/05/15 00:48:23;;;;;;;1.40;1.30;;;15.10;56.50;;;;;;1483422;40;20037;-60
2021/05/15 00:49:46;;;;;;;1.40;1.30;;;15.10;56.60;;;;;;1485053;40;20125;-60
2021/05/15 00:51:07;;;;;;;1.33;1.25;;;15.10;56.70;;;;;;1482968;40;20019;-60
2021/05/15 00:52:33;;;;;;;1.23;1.23;;;15.10;56.80;;;;;;1482075;40;20029;-60
2021/05/15 00:53:54;;;;;;;1.58;1.30;;;15.10;56.90;;;;;;1483509;40;20039;-60
2021/05/15 00:55:16;;;;;;;1.77;1.23;;;15.10;56.90;;;;;;1483437;40;20033;-60
2021/05/15 00:56:37;;;;;;;1.48;1.38;;;15.00;56.90;;;;;;1483545;40;20047;-60
2021/05/15 00:57:58;;;;;;;3.08;1.35;;;15.00;57.00;;;;;;1482350;40;20035;-60
2021/05/15 00:59:19;;;;;;;1.30;1.25;;;15.00;57.00;;;;;;1481983;40;20025;-60
2021/05/15 01:00:40;;;;;;;1.20;1.20;;;15.00;57.00;;;;;;1483176;40;20487;-60
2021/05/15 01:02:02;;;;;;;1.30;1.20;;;15.00;57.00;;;;;;1483577;40;20028;-60
2021/05/15 01:03:23;;;;;;;1.58;1.48;;;15.00;57.10;;;;;;1483740;40;20043;-60
2021/05/15 01:04:44;;;;;;;1.75;1.65;;;15.00;57.10;;;;;;1482692;40;20032;-60
2021/05/15 01:06:05;;;;;;;1.70;1.60;;;15.00;57.20;;;;;;1484498;40;20032;-60
2021/05/15 01:07:26;;;;;;;1.30;1.20;;;15.00;57.30;;;;;;1483684;40;20138;-60
2021/05/15 01:08:47;;;;;;;1.60;1.50;;;15.00;57.20;;;;;;1483542;40;20315;-61
2021/05/15 01:10:09;;;;;;;1.67;1.58;;;15.00;57.20;;;;;;1483190;40;20057;-60
2021/05/15 01:11:30;;;;;;;2.30;1.40;;;15.00;57.30;;;;;;1479118;40;20030;-60
2021/05/15 01:12:54;;;;;;;1.98;1.50;;;15.10;57.50;;;;;;1481998;40;20036;-60
2021/05/15 01:14:15;;;;;;;1.42;1.27;;;15.00;57.50;;;;;;1483808;40;20033;-60
2021/05/15 01:15:36;;;;;;;2.22;1.30;;;15.00;57.60;;;;;;1483193;40;20092;-60
2021/05/15 01:16:56;;;;;;;2.08;1.20;;;15.00;57.60;;;;;;1483454;40;20035;-60
2021/05/15 01:18:17;;;;;;;1.15;1.15;;;15.00;57.60;;;;;;1481449;40;20036;-60
2021/05/15 01:19:38;;;;;;;1.40;1.30;;;15.00;57.50;;;;;;1483016;40;20041;-60
2021/05/15 01:21:01;;;;;;;1.40;1.30;;;15.00;57.50;;;;;;1483155;40;20272;-59
2021/05/15 01:22:21;;;;;;;1.10;1.10;;;15.00;57.50;;;;;;1483273;40;20056;-60
2021/05/15 01:23:43;;;;;;;1.48;1.38;;;15.00;57.50;;;;;;1482884;40;20039;-60
2021/05/15 01:25:04;;;;;;;1.63;1.52;;;15.00;57.40;;;;;;1483394;40;20332;-60
2021/05/15 01:26:27;;;;;;;1.45;1.35;;;15.00;57.40;;;;;;1482560;40;20028;-60
2021/05/15 01:27:48;;;;;;;1.27;1.17;;;15.00;57.50;;;;;;1483164;40;20065;-60
2021/05/15 01:29:09;;;;;;;1.77;1.67;;;15.10;57.50;;;;;;1482957;40;20021;-60
2021/05/15 01:30:30;;;;;;;1.98;1.77;;;15.10;57.50;;;;;;1482578;40;20020;-60
2021/05/15 01:31:51;;;;;;;2.25;1.65;;;15.10;57.60;;;;;;1482227;40;20058;-60
2021/05/15 01:33:12;;;;;;;1.90;1.80;;;15.10;57.60;;;;;;1483308;40;20334;-59
2021/05/15 01:34:33;;;;;;;1.50;1.40;;;15.10;57.70;;;;;;1491347;39;20407;-61
2021/05/15 01:35:54;;;;;;;2.20;2.10;;;15.00;57.60;;;;;;1490722;39;20132;-60
2021/05/15 01:37:14;;;;;;;2.20;2.00;;;15.10;57.60;;;;;;1490774;39;20035;-60
2021/05/15 01:38:36;;;;;;;2.05;1.95;;;15.10;57.60;;;;;;1491352;39;20140;-60
2021/05/15 01:39:57;;;;;;;2.38;2.28;;;15.10;57.80;;;;;;1491087;39;20305;-60
2021/05/15 01:41:19;;;;;;;2.42;2.22;;;15.10;57.80;;;;;;1490756;39;20028;-60
2021/05/15 01:42:40;;;;;;;2.10;2.00;;;15.10;57.90;;;;;;1489735;39;20105;-60
2021/05/15 01:44:02;;;;;;;2.00;1.90;;;15.10;57.90;;;;;;1491138;39;20124;-60
2021/05/15 01:45:26;;;;;;;3.13;2.00;;;15.10;58.00;;;;;;1488781;39;20113;-60
2021/05/15 01:46:47;;;;;;;2.47;2.28;;;15.10;58.00;;;;;;1488751;39;20027;-60
2021/05/15 01:48:16;;;;;;;2.10;2.00;;;15.10;58.00;;;;;;1491213;39;20046;-60
2021/05/15 01:49:37;;;;;;;2.17;2.00;;;15.10;58.20;;;;;;1489461;39;20047;-59
2021/05/15 01:51:06;;;;;;;1.60;1.50;;;15.10;58.10;;;;;;1489401;39;20311;-60
2021/05/15 01:52:27;;;;;;;1.80;1.70;;;15.10;58.10;;;;;;1490264;39;20019;-61
2021/05/15 01:53:50;;;;;;;2.13;2.03;;;15.10;58.00;;;;;;1491138;39;20292;-60
2021/05/15 01:55:19;;;;;;;1.75;1.65;;;15.10;58.10;;;;;;1491263;39;20028;-60
2021/05/15 01:56:40;;;;;;;2.30;1.90;;;15.10;58.10;;;;;;1491106;39;20040;-60
2021/05/15 01:58:01;;;;;;;2.97;1.92;;;15.10;58.00;;;;;;1491640;39;20326;-60
2021/05/15 01:59:21;;;;;;;2.13;1.92;;;15.10;58.10;;;;;;1491014;39;20330;-60
2021/05/15 02:00:42;;;;;;;1.90;1.80;;;15.10;58.10;;;;;;1489436;39;20043;-60
2021/05/15 02:02:03;;;;;;;1.77;1.67;;;15.10;58.00;;;;;;1485569;40;20028;-60
2021/05/15 02:03:25;;;;;;;1.98;1.60;;;15.10;58.00;;;;;;1489440;39;20027;-60
2021/05/15 02:04:46;;;;;;;1.77;1.67;;;15.10;58.10;;;;;;1491671;39;20036;-60
2021/05/15 02:06:07;;;;;;;1.55;1.45;;;15.10;58.20;;;;;;1491850;39;20357;-60
2021/05/15 02:07:28;;;;;;;2.60;1.55;;;15.10;58.30;;;;;;1491872;39;20472;-60
2021/05/15 02:08:49;;;;;;;1.88;1.77;;;15.10;58.30;;;;;;1490778;39;20060;-60
2021/05/15 02:10:10;;;;;;;1.90;1.80;;;15.10;58.40;;;;;;1490657;39;20040;-60
2021/05/15 02:11:31;;;;;;;1.80;1.52;;;15.10;58.30;;;;;;1490593;39;20036;-60
2021/05/15 02:12:52;;;;;;;1.70;1.60;;;15.10;58.30;;;;;;1491955;39;20028;-60
2021/05/15 02:14:13;;;;;;;1.88;1.77;;;15.10;58.60;;;;;;1492578;39;20246;-60
2021/05/15 02:15:35;;;;;;;1.70;1.60;;;15.10;58.40;;;;;;1491624;39;20043;-60
2021/05/15 02:16:56;;;;;;;1.88;1.70;;;15.10;58.40;;;;;;1492834;39;20043;-60
2021/05/15 02:18:17;;;;;;;2.08;1.88;;;15.10;58.50;;;;;;1491317;39;20109;-60
2021/05/15 02:19:38;;;;;;;1.73;1.63;;;15.10;58.60;;;;;;1492133;39;20039;-60
2021/05/15 02:20:59;;;;;;;1.73;1.63;;;15.10;58.50;;;;;;1492333;39;20089;-60
2021/05/15 02:22:20;;;;;;;1.73;1.63;;;15.10;58.50;;;;;;1491568;39;20516;-60
2021/05/15 02:23:41;;;;;;;1.92;1.65;;;15.10;58.50;;;;;;1492202;39;20044;-60
2021/05/15 02:25:03;;;;;;;1.80;1.70;;;15.10;58.50;;;;;;1493745;39;20031;-60
2021/05/15 02:26:24;;;;;;;1.90;1.80;;;15.10;58.60;;;;;;1491623;39;20450;-60
2021/05/15 02:27:45;;;;;;;2.10;2.00;;;15.10;58.60;;;;;;1491360;39;20027;-60
2021/05/15 02:29:06;;;;;;;1.95;1.80;;;15.10;58.60;;;;;;1491373;39;20038;-60
2021/05/15 02:30:30;;;;;;;2.10;2.00;;;15.10;58.60;;;;;;1492685;39;20284;-60
2021/05/15 02:31:51;;;;;;;1.80;1.70;;;15.10;58.70;;;;;;1492386;39;20039;-60
2021/05/15 02:33:13;;;;;;;1.88;1.77;;;15.10;58.60;;;;;;1491426;39;20357;-60
2021/05/15 02:34:34;;;;;;;1.85;1.75;;;15.10;58.70;;;;;;1492347;39;20028;-60
2021/05/15 02:35:55;;;;;;;2.22;2.00;;;15.10;58.60;;;;;;1491835;39;20042;-60
2021/05/15 02:37:16;;;;;;;2.00;1.90;;;15.10;58.60;;;;;;1491000;39;20364;-60
2021/05/15 02:38:36;;;;;;;2.42;1.98;;;15.20;58.70;;;;;;1492093;39;20043;-60
2021/05/15 02:39:57;;;;;;;2.25;2.05;;;15.20;58.70;;;;;;1492837;39;20075;-60
2021/05/15 02:41:18;;;;;;;2.72;2.53;;;15.20;58.70;;;;;;1490964;39;20716;-60
2021/05/15 02:42:39;;;;;;;2.35;2.25;;;15.20;58.70;;;;;;1492114;39;20039;-60
2021/05/15 02:44:00;;;;;;;2.72;2.53;;;15.20;58.60;;;;;;1492307;39;20034;-60
2021/05/15 02:45:23;;;;;;;2.75;2.55;;;15.20;58.70;;;;;;1492215;39;20051;-60
2021/05/15 02:46:44;;;;;;;2.47;2.35;;;15.20;58.80;;;;;;1492409;39;20327;-60
2021/05/15 02:48:06;;;;;;;2.70;2.50;;;15.20;58.70;;;;;;1491973;39;20031;-60
2021/05/15 02:49:26;;;;;;;3.10;2.90;;;15.20;58.60;;;;;;1490886;39;20079;-61
2021/05/15 02:50:52;;;;;;;3.00;2.80;;;15.20;58.60;;;;;;1490591;39;20036;-60
2021/05/15 02:52:13;;;;;;;3.08;2.88;;;15.20;58.70;;;;;;1492116;39;20089;-60
2021/05/15 02:53:33;;;;;;;2.92;2.72;;;15.20;58.60;;;;;;1491712;39;20036;-60
2021/05/15 02:54:54;;;;;;;4.22;3.28;;;15.20;58.60;;;;;;1490960;39;20027;-61
2021/05/15 02:56:15;;;;;;;3.83;3.28;;;15.20;58.70;;;;;;1491750;39;20347;-60
2021/05/15 02:57:37;;;;;;;4.07;3.35;;;15.20;58.80;;;;;;1492004;39;20038;-59
2021/05/15 02:58:58;;;;;;;3.13;2.92;;;15.20;58.70;;;;;;1493158;39;20464;-60
2021/05/15 03:00:24;;;;;;;4.47;2.95;;;15.20;58.60;;;;;;1492444;39;20035;-60
2021/05/15 03:01:45;;;;;;;3.45;3.10;;;15.20;58.60;;;;;;1492620;39;20254;-60
2021/05/15 03:03:06;;;;;;;4.13;3.78;;;15.10;58.50;;;;;;1491202;39;20044;-61
2021/05/15 03:04:27;;;;;;;2.97;2.75;;;15.10;58.50;;;;;;1491643;39;20357;-61
2021/05/15 03:05:48;;;;;;;3.20;3.00;;;15.10;58.50;;;;;;1491206;39;20206;-60
2021/05/15 03:07:09;;;;;;;3.08;2.88;;;15.10;58.50;;;;;;1487712;40;20064;-60
2021/05/15 03:08:30;;;;;;;3.03;2.80;;;15.10;58.50;;;;;;1491008;39;20128;-60
2021/05/15 03:09:51;;;;;;;3.63;3.33;;;15.10;58.40;;;;;;1492285;39;20032;-60
2021/05/15 03:11:12;;;;;;;3.30;3.00;;;15.10;58.50;;;;;;1492167;39;20038;-60
2021/05/15 03:12:33;;;;;;;3.00;2.80;;;15.00;58.50;;;;;;1491593;39;20032;-60
2021/05/15 03:13:54;;;;;;;3.15;2.95;;;15.10;58.70;;;;;;1492218;39;20112;-60
2021/05/15 03:15:15;;;;;;;5.25;2.97;;;15.10;58.70;;;;;;1491241;39;20030;-60
2021/05/15 03:16:36;;;;;;;2.60;2.40;;;15.10;58.70;;;;;;1491175;39;20278;-60
2021/05/15 03:17:57;;;;;;;3.15;2.85;;;15.00;58.70;;;;;;1491699;39;20027;-60
2021/05/15 03:19:18;;;;;;;3.97;2.80;;;15.00;58.70;;;;;;1490949;39;20317;-60
2021/05/15 03:20:39;;;;;;;3.00;2.80;;;15.00;58.70;;;;;;1490393;39;21044;-60
2021/05/15 03:22:00;;;;;;;3.05;2.85;;;15.00;58.70;;;;;;1491685;39;20063;-60
2021/05/15 03:23:21;;;;;;;3.30;2.88;;;15.00;58.70;;;;;;1491090;39;20042;-61
2021/05/15 03:24:42;;;;;;;3.97;3.03;;;15.00;58.80;;;;;;1491187;39;20233;-60
2021/05/15 03:26:03;;;;;;;3.08;2.88;;;15.00;59.00;;;;;;1491277;39;20353;-60
2021/05/15 03:27:24;;;;;;;3.03;2.83;;;15.00;59.00;;;;;;1491683;39;20038;-60
2021/05/15 03:28:45;;;;;;;3.08;2.88;;;15.00;58.90;;;;;;1490876;39;20123;-60
2021/05/15 03:30:09;;;;;;;2.65;2.45;;;15.00;58.80;;;;;;1491419;39;20047;-61
2021/05/15 03:31:30;;;;;;;2.67;2.47;;;15.00;58.90;;;;;;1490391;39;20077;-60
2021/05/15 03:32:51;;;;;;;3.15;2.80;;;15.00;58.80;;;;;;1492170;39;20253;-60
2021/05/15 03:34:12;;;;;;;3.22;2.50;;;15.00;58.90;;;;;;1491959;39;20042;-60
2021/05/15 03:35:33;;;;;;;2.90;2.70;;;14.90;58.80;;;;;;1489731;39;20039;-60
2021/05/15 03:36:54;;;;;;;3.00;2.80;;;14.90;58.80;;;;;;1490167;39;20042;-60
2021/05/15 03:38:14;;;;;;;3.47;2.45;;;14.90;58.70;;;;;;1491080;39;20020;-60
2021/05/15 03:39:35;;;;;;;2.72;2.53;;;14.90;58.70;;;;;;1491296;39;20288;-60
2021/05/15 03:40:56;;;;;;;2.70;2.50;;;14.90;58.70;;;;;;1490991;39;20049;-60
2021/05/15 03:42:17;;;;;;;2.72;2.50;;;14.90;59.20;;;;;;1490704;39;20027;-60
2021/05/15 03:43:38;;;;;;;2.45;2.20;;;14.90;58.80;;;;;;1490198;39;20036;-60
2021/05/15 03:44:59;;;;;;;2.38;2.17;;;14.90;58.70;;;;;;1491254;39;20040;-60
2021/05/15 03:46:20;;;;;;;2.90;2.70;;;14.90;58.70;;;;;;1489975;39;20036;-60
2021/05/15 03:47:41;;;;;;;4.32;2.53;;;14.90;58.70;;;;;;1491535;39;20059;-60
2021/05/15 03:49:02;;;;;;;2.50;2.30;;;14.80;58.70;;;;;;1491722;39;20427;-60
2021/05/15 03:50:23;;;;;;;2.40;2.20;;;14.80;58.80;;;;;;1487011;40;20032;-60
2021/05/15 03:51:45;;;;;;;2.30;2.17;;;14.80;58.80;;;;;;1487418;39;20071;-60
2021/05/15 03:53:06;;;;;;;2.45;2.25;;;14.80;58.80;;;;;;1491245;39;20040;-60
2021/05/15 03:54:27;;;;;;;2.88;2.20;;;14.80;58.90;;;;;;1490849;39;20040;-60
2021/05/15 03:55:48;;;;;;;2.50;2.30;;;14.80;58.90;;;;;;1489939;39;20062;-60
2021/05/15 03:57:09;;;;;;;3.30;2.60;;;14.80;58.90;;;;;;1489516;39;20060;-60
2021/05/15 03:58:29;;;;;;;2.20;2.03;;;14.80;59.00;;;;;;1491691;39;20044;-60
2021/05/15 03:59:50;;;;;;;2.75;2.35;;;14.80;59.10;;;;;;1491031;39;20119;-61
2021/05/15 04:01:11;;;;;;;1.98;1.88;;;14.80;59.20;;;;;;1486783;40;20024;-60
2021/05/15 04:02:32;;;;;;;2.60;2.25;;;14.80;59.70;;;;;;1488980;39;20016;-60
2021/05/15 04:03:53;;;;;;;2.60;2.40;;;14.80;59.20;;;;;;1491386;39;20391;-60
2021/05/15 04:05:15;;;;;;;2.42;2.30;;;14.80;59.20;;;;;;1489176;39;20183;-60
2021/05/15 04:06:35;;;;;;;2.50;2.30;;;14.80;59.20;;;;;;1491654;39;20116;-60
2021/05/15 04:07:56;;;;;;;2.63;2.42;;;14.80;59.30;;;;;;1491914;39;20028;-60
2021/05/15 04:09:17;;;;;;;2.42;2.17;;;14.80;59.20;;;;;;1490528;39;20030;-60
2021/05/15 04:10:38;;;;;;;2.58;2.38;;;14.80;59.20;;;;;;1487270;40;20281;-60
2021/05/15 04:11:59;;;;;;;2.30;2.20;;;14.80;59.20;;;;;;1490037;39;20347;-59
2021/05/15 04:15:11;;;;;;;2.63;2.40;;;14.80;59.20;;;;;;1490347;39;20277;-60
2021/05/15 04:16:46;;;;;;;2.40;2.20;;;14.80;59.20;;;;;;1491483;39;20060;-60
2021/05/15 04:18:14;;;;;;;2.35;2.15;;;14.80;59.10;;;;;;1490988;39;20104;-60
2021/05/15 04:19:35;;;;;;;2.00;1.77;;;14.80;59.20;;;;;;1491303;39;20136;-60
2021/05/15 04:20:57;;;;;;;2.08;1.98;;;14.80;59.10;;;;;;1491732;39;20284;-60
2021/05/15 04:22:18;;;;;;;2.03;1.90;;;14.80;59.20;;;;;;1491313;39;20020;-60
2021/05/15 04:23:39;;;;;;;2.35;2.15;;;14.80;59.20;;;;;;1491561;39;20043;-60
2021/05/15 04:25:00;;;;;;;3.30;2.25;;;14.80;59.20;;;;;;1490955;39;20016;-60
2021/05/15 04:26:21;;;;;;;2.95;2.00;;;14.80;59.20;;;;;;1490528;39;20071;-60
2021/05/15 04:27:42;;;;;;;2.30;2.20;;;14.80;59.70;;;;;;1490484;39;20284;-60
2021/05/15 04:29:03;;;;;;;2.50;2.30;;;14.80;59.30;;;;;;1491255;39;20020;-59
2021/05/15 04:30:25;;;;;;;3.95;2.08;;;14.80;59.60;;;;;;1491329;39;20063;-60
2021/05/15 04:31:46;;;;;;;2.15;2.05;;;14.80;59.30;;;;;;1490585;39;20032;-60
2021/05/15 04:33:07;;;;;;;2.55;2.35;;;14.80;59.30;;;;;;1491218;39;20043;-58
2021/05/15 04:34:31;;;;;;;2.50;2.30;;;14.80;59.40;;;;;;1490900;39;20039;-60
2021/05/15 04:35:53;;;;;;;2.70;2.50;;;14.80;59.40;;;;;;1489578;39;20404;-60
2021/05/15 04:37:14;;;;;;;2.22;2.13;;;14.80;59.50;;;;;;1492235;39;20024;-60
2021/05/15 04:38:35;;;;;;;2.50;2.30;;;14.80;59.60;;;;;;1491794;39;20043;-60
2021/05/15 04:39:56;;;;;;;2.85;2.60;;;14.90;59.60;;;;;;1490145;39;20345;-60
2021/05/15 04:41:16;;;;;;;2.50;2.40;;;14.80;59.60;;;;;;1491548;39;20120;-60
2021/05/15 04:42:38;;;;;;;2.83;2.63;;;14.80;59.60;;;;;;1491627;39;20064;-60
2021/05/15 04:43:59;;;;;;;2.63;2.42;;;14.80;59.60;;;;;;1491103;39;20024;-60
2021/05/15 04:45:19;;;;;;;2.50;2.30;;;14.80;59.60;;;;;;1490439;39;20423;-60
2021/05/15 04:46:40;;;;;;;4.20;2.50;;;14.90;59.70;;;;;;1490867;39;20027;-60
2021/05/15 04:48:01;;;;;;;2.65;2.28;;;14.90;59.80;;;;;;1490845;39;20076;-60
2021/05/15 04:49:22;;;;;;;2.72;2.53;;;14.90;59.70;;;;;;1489627;39;20048;-60
2021/05/15 04:50:43;;;;;;;2.53;2.33;;;14.90;59.70;;;;;;1489453;39;20132;-60
2021/05/15 04:52:04;;;;;;;3.38;2.60;;;14.90;59.70;;;;;;1491128;39;20008;-60
2021/05/15 04:53:25;;;;;;;3.28;2.75;;;14.90;59.80;;;;;;1489434;39;20032;-60
2021/05/15 04:54:46;;;;;;;2.67;2.47;;;14.90;59.80;;;;;;1489943;39;20031;-60
2021/05/15 04:56:09;;;;;;;3.00;2.80;;;14.90;59.70;;;;;;1491444;39;20038;-59
2021/05/15 04:57:30;;;;;;;2.85;2.65;;;14.90;59.60;;;;;;1489934;39;20024;-60
2021/05/15 04:58:51;;;;;;;3.35;3.05;;;14.90;59.60;;;;;;1490970;39;20072;-60
2021/05/15 05:00:12;;;;;;;3.28;2.97;;;14.90;59.70;;;;;;1490402;39;20272;-60
2021/05/15 05:01:33;;;;;;;3.70;2.90;;;14.90;59.70;;;;;;1490074;39;20040;-60
2021/05/15 05:02:54;;;;;;;3.33;3.03;;;14.90;59.70;;;;;;1490852;39;20027;-60
2021/05/15 05:04:15;;;;;;;3.15;2.85;;;14.90;59.60;;;;;;1491065;39;20042;-60
2021/05/15 05:05:36;;;;;;;5.30;3.20;;;15.00;59.70;;;;;;1490669;39;20043;-60
2021/05/15 05:06:57;;;;;;;3.53;2.70;;;15.00;59.70;;;;;;1491476;39;20048;-61
2021/05/15 05:08:18;;;;;;;3.55;3.25;;;15.00;59.70;;;;;;1491015;39;20063;-60
2021/05/15 05:09:39;;;;;;;3.90;3.50;;;15.00;59.70;;;;;;1491598;39;20129;-58
2021/05/15 05:11:00;;;;;;;4.07;3.67;;;15.00;59.70;;;;;;1491294;39;20046;-60
2021/05/15 05:12:21;;;;;;;3.83;3.53;;;15.00;59.60;;;;;;1490505;39;20237;-60
2021/05/15 05:13:42;;;;;;;4.50;4.10;;;15.00;59.70;;;;;;1491210;39;20042;-60
2021/05/15 05:15:04;;;;;;;4.85;3.95;;;15.00;59.80;;;;;;1491529;39;20505;-60
2021/05/15 05:16:25;;;;;;;4.43;4.03;;;15.00;59.70;;;;;;1491072;39;20054;-60
2021/05/15 05:17:47;;;;;;;4.80;4.38;;;15.00;59.70;;;;;;1490708;39;20039;-60
2021/05/15 05:19:11;;;;;;;4.60;3.90;;;15.00;59.70;;;;;;1491198;39;20030;-60
2021/05/15 05:20:32;;;;;;;4.45;4.05;;;15.00;59.70;;;;;;1490094;39;20036;-60
2021/05/15 05:21:53;;;;;;;4.78;4.28;;;15.00;59.70;;;;;;1491088;39;20284;-60
2021/05/15 05:23:14;;;;;;;7.30;4.97;;;15.00;59.80;;;;;;1490697;39;20120;-60
2021/05/15 05:24:35;;;;;;;5.43;4.55;;;15.00;59.80;;;;;;1489487;39;20059;-60
2021/05/15 05:25:56;;;;;;;6.32;4.50;;;15.00;59.80;;;;;;1486591;40;20053;-60
2021/05/15 05:27:20;;;;;;;4.55;4.15;;;15.00;59.80;;;;;;1489968;39;20039;-60
2021/05/15 05:28:42;;;;;;;5.10;4.60;;;15.00;59.80;;;;;;1491441;39;20046;-60
2021/05/15 05:30:04;;;;;;;5.30;4.30;;;15.00;59.80;;;;;;1491069;39;20032;-60
2021/05/15 05:31:25;;;;;;;5.70;4.55;;;15.00;60.40;;;;;;1490197;39;20071;-60
2021/05/15 05:32:48;;;;;;;4.40;3.95;;;15.00;59.80;;;;;;1489408;39;20351;-60
2021/05/15 05:34:09;;;;;;;5.57;4.78;;;15.00;59.90;;;;;;1489808;39;20030;-60
2021/05/15 05:35:34;;;;;;;5.65;5.10;;;15.00;59.90;;;;;;1485626;39;20032;-60
2021/05/15 05:36:55;;;;;;;5.10;4.55;;;15.00;59.90;;;;;;1489366;39;20144;-60
2021/05/15 05:38:16;;;;;;;5.85;5.05;;;15.00;59.90;;;;;;1490470;39;20325;-60
2021/05/15 05:39:37;;;;;;;6.15;4.82;;;15.00;59.90;;;;;;1490946;39;20036;-60
2021/05/15 05:40:58;;;;;;;6.78;4.75;;;15.00;59.90;;;;;;1491402;39;20058;-60
2021/05/15 05:42:20;;;;;;;6.40;4.72;;;15.00;60.10;;;;;;1490586;39;20105;-60
2021/05/15 05:43:41;;;;;;;5.28;4.53;;;15.00;60.10;;;;;;1491134;39;20036;-60
2021/05/15 05:45:07;;;;;;;6.00;5.07;;;15.00;60.00;;;;;;1489872;39;20121;-61
2021/05/15 05:46:28;;;;;;;4.78;4.38;;;15.00;60.20;;;;;;1488819;39;20120;-60
2021/05/15 05:47:49;;;;;;;6.00;5.10;;;15.00;60.00;;;;;;1491008;39;20032;-60
2021/05/15 05:49:10;;;;;;;5.55;4.97;;;15.00;60.10;;;;;;1491001;39;20036;-60
2021/05/15 05:50:31;;;;;;;5.43;4.78;;;15.00;60.00;;;;;;1490087;39;20038;-60
2021/05/15 05:51:51;;;;;;;5.13;4.63;;;15.00;60.00;;;;;;1490607;39;20040;-60
2021/05/15 05:53:13;;;;;;;5.07;4.57;;;15.00;60.10;;;;;;1489312;39;20353;-60
2021/05/15 05:54:34;;;;;;;4.88;4.43;;;15.00;60.10;;;;;;1491078;39;20034;-60
2021/05/15 05:55:55;;;;;;;3.95;3.65;;;15.00;60.10;;;;;;1490994;39;20260;-60
2021/05/15 05:57:16;;;;;;;5.28;4.82;;;15.00;60.10;;;;;;1490559;39;20036;-60
2021/05/15 05:58:37;;;;;;;5.07;4.57;;;15.00;60.20;;;;;;1491021;39;20056;-60
2021/05/15 05:59:58;;;;;;;5.10;4.00;;;15.00;60.30;;;;;;1490256;39;20294;-60
2021/05/15 06:01:19;;;;;;;5.15;4.65;;;15.10;60.30;;;;;;1490154;39;20046;-60
2021/05/15 06:02:40;;;;;;;5.75;5.15;;;15.10;60.40;;;;;;1489668;39;20057;-60
2021/05/15 06:04:01;;;;;;;5.40;4.90;;;15.00;60.30;;;;;;1487147;40;20344;-60
2021/05/15 06:05:21;;;;;;;5.50;5.00;;;15.10;60.40;;;;;;1490410;39;20039;-60
2021/05/15 06:06:42;;;;;;;5.10;4.65;;;15.10;60.50;;;;;;1491037;39;20032;-60
2021/05/15 06:08:05;;;;;;;5.40;4.43;;;15.10;60.50;;;;;;1490679;39;20023;-60
2021/05/15 06:09:26;;;;;;;6.13;5.53;;;15.10;60.50;;;;;;1488590;39;20039;-60
2021/05/15 06:10:47;;;;;;;6.18;5.00;;;15.10;60.40;;;;;;1490760;39;20272;-60
2021/05/15 06:12:10;;;;;;;5.70;4.80;;;15.10;60.50;;;;;;1489501;39;20032;-60
2021/05/15 06:13:31;;;;;;;8.20;5.20;;;15.10;60.50;;;;;;1490092;39;20053;-60
2021/05/15 06:14:52;;;;;;;5.53;5.03;;;15.10;60.40;;;;;;1489882;39;20036;-60
2021/05/15 06:16:13;;;;;;;6.05;5.45;;;15.10;60.30;;;;;;1491448;39;20426;-61
2021/05/15 06:17:34;;;;;;;4.63;4.22;;;15.10;60.40;;;;;;1490972;39;20358;-59
2021/05/15 06:18:55;;;;;;;5.65;5.15;;;15.10;60.40;;;;;;1486229;40;20030;-60
2021/05/15 06:20:16;;;;;;;5.35;4.85;;;15.10;60.40;;;;;;1489604;39;20100;-60
2021/05/15 06:21:37;;;;;;;5.47;4.93;;;15.10;60.70;;;;;;1489887;39;20362;-60
2021/05/15 06:22:58;;;;;;;4.70;4.30;;;15.10;60.70;;;;;;1490327;39;20036;-60
2021/05/15 06:24:19;;;;;;;5.63;4.93;;;15.10;60.70;;;;;;1490427;39;20027;-60
2021/05/15 06:25:40;;;;;;;5.93;4.57;;;15.10;60.70;;;;;;1490757;39;20042;-60
2021/05/15 06:27:01;;;;;;;6.05;4.82;;;15.10;60.90;;;;;;1491451;39;20030;-60
2021/05/15 06:28:22;;;;;;;5.05;4.57;;;15.10;60.90;;;;;;1489074;39;20516;-60
2021/05/15 06:29:43;;;;;;;4.93;4.53;;;15.10;61.00;;;;;;1489865;39;20357;-60
2021/05/15 06:31:05;;;;;;;4.85;4.35;;;15.20;61.00;;;;;;1489141;39;20031;-60
2021/05/15 06:32:26;;;;;;;6.60;5.00;;;15.20;61.10;;;;;;1485170;40;20037;-60
2021/05/15 06:33:47;;;;;;;6.28;4.40;;;15.20;61.10;;;;;;1485142;40;20313;-60
2021/05/15 06:35:09;;;;;;;5.90;5.35;;;15.20;60.80;;;;;;1487229;40;20043;-60
2021/05/15 06:36:29;;;;;;;4.95;4.45;;;15.20;60.70;;;;;;1487033;40;20024;-60
2021/05/15 06:37:50;;;;;;;5.70;4.32;;;15.20;60.60;;;;;;1489514;39;20043;-60
2021/05/15 06:39:11;;;;;;;6.25;4.72;;;15.20;60.50;;;;;;1489379;39;20054;-60
2021/05/15 06:40:33;;;;;;;4.25;3.85;;;15.20;60.40;;;;;;1490424;39;20397;-60
2021/05/15 06:41:53;;;;;;;5.10;4.60;;;15.20;60.40;;;;;;1491185;39;20116;-60
2021/05/15 06:43:15;;;;;;;4.20;3.85;;;15.20;60.40;;;;;;1490817;39;20043;-59
2021/05/15 06:44:35;;;;;;;5.05;4.55;;;15.20;60.40;;;;;;1491047;39;20023;-59
2021/05/15 06:45:56;;;;;;;5.03;4.38;;;15.20;60.50;;;;;;1490633;39;20024;-60
2021/05/15 06:47:17;;;;;;;4.97;4.57;;;15.20;60.40;;;;;;1490527;39;20064;-60
2021/05/15 06:48:38;;;;;;;4.70;4.30;;;15.20;60.60;;;;;;1490943;39;20027;-60
2021/05/15 06:49:59;;;;;;;3.95;3.65;;;15.10;60.50;;;;;;1491441;39;20060;-60
2021/05/15 06:51:20;;;;;;;4.50;4.10;;;15.10;60.50;;;;;;1490388;39;20043;-60
2021/05/15 06:52:41;;;;;;;4.35;3.95;;;15.10;60.50;;;;;;1489515;39;20040;-60
2021/05/15 06:54:02;;;;;;;4.28;3.88;;;15.10;60.50;;;;;;1491020;39;20024;-60
2021/05/15 06:55:23;;;;;;;4.93;3.75;;;15.10;60.50;;;;;;1491100;39;20047;-60
2021/05/15 06:56:44;;;;;;;4.05;3.65;;;15.10;60.20;;;;;;1491058;39;20046;-60
2021/05/15 06:58:06;;;;;;;3.97;3.63;;;15.10;60.00;;;;;;1490610;39;20043;-60
2021/05/15 06:59:27;;;;;;;7.20;3.97;;;15.20;60.00;;;;;;1489775;39;20047;-60
2021/05/15 07:00:47;;;;;;;5.55;4.25;;;15.20;59.90;;;;;;1489858;39;20044;-60
2021/05/15 07:02:08;;;;;;;4.47;3.88;;;15.20;59.90;;;;;;1488887;39;20039;-60
2021/05/15 07:03:29;;;;;;;4.82;4.25;;;15.20;59.80;;;;;;1492078;39;20039;-60
2021/05/15 07:04:51;;;;;;;6.25;5.65;;;15.20;59.70;;;;;;1492246;39;20023;-60
2021/05/15 07:06:12;;;;;;;6.55;5.50;;;15.20;59.60;;;;;;1487474;40;20268;-60
2021/05/15 07:07:33;;;;;;;6.95;5.75;;;15.20;59.50;;;;;;1487121;40;20137;-60